F5OPV-PH Weather Reports


Display with metric or nautical units.
time (UTC)temp
F
wind
direction
speed
MPH
gust
MPH
rain 1hr
in
rain 24hr
in
rain mn
in
humidity
%
barometer
mb
20221003144822 75 0.0 0.0 0.00 0.00 0.00 63
20221003144305 75 0.0 0.0 0.00 0.00 0.00 63
20221003143749 76 0.0 0.0 0.00 0.00 0.00 63
20221003143232 76 0.0 0.0 0.00 0.00 0.00 64
20221003142718 76 0.0 0.0 0.00 0.00 0.00 63
20221003142205 76 0.0 0.0 0.00 0.00 0.00 63
20221003141637 76 0.0 0.0 0.00 0.00 0.00 64
20221003141121 75 0.0 0.0 0.00 0.00 0.00 64
20221003140604 75 0.0 0.0 0.00 0.00 0.00 63
20221003140047 75 0.0 0.0 0.00 0.00 0.00 64
20221003135534 21 0.0 0.0 0.00 0.00 0.00 100
20221003135017 75 0.0 0.0 0.00 0.00 0.00 64
20221003134500 75 0.0 0.0 0.00 0.00 0.00 63
20221003133944 75 0.0 0.0 0.00 0.00 0.00 63
20221003133427 75 0.0 0.0 0.00 0.00 0.00 63
20221003132910 75 0.0 0.0 0.00 0.00 0.00 63
20221003132357 75 0.0 0.0 0.00 0.00 0.00 64
20221003131840 74 0.0 0.0 0.00 0.00 0.00 65
20221003131324 75 0.0 0.0 0.00 0.00 0.00 65
20221003130807 74 0.0 0.0 0.00 0.00 0.00 65
20221003130250 74 0.0 0.0 0.00 0.00 0.00 67
20221003125733 74 0.0 0.0 0.00 0.00 0.00 67
20221003125220 74 0.0 0.0 0.00 0.00 0.00 68
20221003124703 74 0.0 0.0 0.00 0.00 0.00 68
20221003124146 74 0.0 0.0 0.00 0.00 0.00 68
20221003123630 74 0.0 0.0 0.00 0.00 0.00 69
20221003123113 74 0.0 0.0 0.00 0.00 0.00 70
20221003122556 74 0.0 0.0 0.00 0.00 0.00 70
20221003122043 74 0.0 0.0 0.00 0.00 0.00 70
20221003121526 74 0.0 0.0 0.00 0.00 0.00 72
20221003121009 74 0.0 0.0 0.00 0.00 0.00 72
20221003120453 74 0.0 0.0 0.00 0.00 0.00 72
20221003115936 74 0.0 0.0 0.00 0.00 0.00 72
20221003115419 74 0.0 0.0 0.00 0.00 0.00 72
20221003114906 74 0.0 0.0 0.00 0.00 0.00 72
20221003114352 74 0.0 0.0 0.00 0.00 0.00 72
20221003113825 74 0.0 0.0 0.00 0.00 0.00 72
20221003113308 74 0.0 0.0 0.00 0.00 0.00 73
20221003112751 74 0.0 0.0 0.00 0.00 0.00 73
20221003112235 73 0.0 0.0 0.00 0.00 0.00 73
20221003111721 73 0.0 0.0 0.00 0.00 0.00 74
20221003111204 73 0.0 0.0 0.00 0.00 0.00 73
20221003110648 73 0.0 0.0 0.00 0.00 0.00 72
20221003110131 73 0.0 0.0 0.00 0.00 0.00 71
20221003105614 73 0.0 0.0 0.00 0.00 0.00 73
20221003105058 73 0.0 0.0 0.00 0.00 0.00 73
20221003104544 73 0.0 0.0 0.00 0.00 0.00 73
20221003104027 73 0.0 0.0 0.00 0.00 0.00 73
20221003103511 73 0.0 0.0 0.00 0.00 0.00 73
20221003102954 73 0.0 0.0 0.00 0.00 0.00 74
20221003102437 73 0.0 0.0 0.00 0.00 0.00 74
20221003101921 73 0.0 0.0 0.00 0.00 0.00 74
20221003101407 73 0.0 0.0 0.00 0.00 0.00 75
20221003100850 72 0.0 0.0 0.00 0.00 0.00 75
20221003100334 72 0.0 0.0 0.00 0.00 0.00 74
20221003095817 72 0.0 0.0 0.00 0.00 0.00 74
20221003095300 72 0.0 0.0 0.00 0.00 0.00 74
20221003094744 72 0.0 0.0 0.00 0.00 0.00 73
20221003094230 72 0.0 0.0 0.00 0.00 0.00 73
20221003093713 21 0.0 0.0 0.00 0.00 0.00 100
20221003093157 72 0.0 0.0 0.00 0.00 0.00 73
20221003092640 72 0.0 0.0 0.00 0.00 0.00 73
20221003092123 72 0.0 0.0 0.00 0.00 0.00 72
20221003091606 72 0.0 0.0 0.00 0.00 0.00 72
20221003091053 72 0.0 0.0 0.00 0.00 0.00 69
20221003090539 72 0.0 0.0 0.00 0.00 0.00 69
20221003090012 73 0.0 0.0 0.00 0.00 0.00 67
20221003085455 73 0.0 0.0 0.00 0.00 0.00 64
20221003084939 73 0.0 0.0 0.00 0.00 0.00 63
20221003084422 73 0.0 0.0 0.00 0.00 0.00 64
20221003083908 73 0.0 0.0 0.00 0.00 0.00 63
20221003083352 73 0.0 0.0 0.00 0.00 0.00 63
20221003082835 73 0.0 0.0 0.00 0.00 0.00 63
20221003082318 73 0.0 0.0 0.00 0.00 0.00 62
20221003081802 73 0.0 0.0 0.00 0.00 0.00 60
20221003081245 73 0.0 0.0 0.00 0.00 0.00 60
20221003080731 73 0.0 0.0 0.00 0.00 0.00 60
20221003080215 73 0.0 0.0 0.00 0.00 0.00 60
20221003075658 73 0.0 0.0 0.00 0.00 0.00 60
20221003075141 73 0.0 0.0 0.00 0.00 0.00 60
20221003074625 73 0.0 0.0 0.00 0.00 0.00 60
20221003074108 73 0.0 0.0 0.00 0.00 0.00 60
20221003073554 73 0.0 0.0 0.00 0.00 0.00 60
20221003073038 73 0.0 0.0 0.00 0.00 0.00 60
20221003072521 73 0.0 0.0 0.00 0.00 0.00 60
20221003072004 72 0.0 0.0 0.00 0.00 0.00 60
20221003071448 73 0.0 0.0 0.00 0.00 0.00 60
20221003070931 73 0.0 0.0 0.00 0.00 0.00 60
20221003070417 72 0.0 0.0 0.00 0.00 0.00 60
20221003065901 73 0.0 0.0 0.00 0.00 0.00 60
20221003065344 73 0.0 0.0 0.00 0.00 0.00 60
20221003064827 73 0.0 0.0 0.00 0.00 0.00 60
20221003064311 73 0.0 0.0 0.00 0.00 0.00 60
20221003063754 73 0.0 0.0 0.00 0.00 0.00 60
20221003063240 73 0.0 0.0 0.00 0.00 0.00 60
20221003062727 21 0.0 0.0 0.00 0.00 0.00 100
20221003062159 73 0.0 0.0 0.00 0.00 0.00 60
20221003061643 73 0.0 0.0 0.00 0.00 0.00 60
20221003061126 73 0.0 0.0 0.00 0.00 0.00 60
20221003060609 73 0.0 0.0 0.00 0.00 0.00 60
20221003060056 73 0.0 0.0 0.00 0.00 0.00 60
20221003055539 73 0.0 0.0 0.00 0.00 0.00 60
20221003055023 73 0.0 0.0 0.00 0.00 0.00 60
20221003054506 73 0.0 0.0 0.00 0.00 0.00 60
20221003053949 73 0.0 0.0 0.00 0.00 0.00 61
20221003053432 73 0.0 0.0 0.00 0.00 0.00 60
20221003052919 73 0.0 0.0 0.00 0.00 0.00 60
20221003052402 73 0.0 0.0 0.00 0.00 0.00 60
20221003051845 73 0.0 0.0 0.00 0.00 0.00 61
20221003051329 73 0.0 0.0 0.00 0.00 0.00 61
20221003050812 73 0.0 0.0 0.00 0.00 0.00 60
20221003050255 73 0.0 0.0 0.00 0.00 0.00 60
20221003045742 73 0.0 0.0 0.00 0.00 0.00 61
20221003045225 73 0.0 0.0 0.00 0.00 0.00 61
20221003044708 73 0.0 0.0 0.00 0.00 0.00 60
20221003044152 73 0.0 0.0 0.00 0.00 0.00 61
20221003043635 73 0.0 0.0 0.00 0.00 0.00 61
20221003043118 73 0.0 0.0 0.00 0.00 0.00 61
20221003042605 73 0.0 0.0 0.00 0.00 0.00 61
20221003042048 73 0.0 0.0 0.00 0.00 0.00 61
20221003041531 73 0.0 0.0 0.00 0.00 0.00 61
20221003041015 73 0.0 0.0 0.00 0.00 0.00 61
20221003040458 73 0.0 0.0 0.00 0.00 0.00 61
20221003035941 73 0.0 0.0 0.00 0.00 0.00 61
20221003035428 73 0.0 0.0 0.00 0.00 0.00 61
20221003034914 73 0.0 0.0 0.00 0.00 0.00 61
20221003034347 73 0.0 0.0 0.00 0.00 0.00 61
20221003033830 73 0.0 0.0 0.00 0.00 0.00 62
20221003033313 73 0.0 0.0 0.00 0.00 0.00 62
20221003032757 73 0.0 0.0 0.00 0.00 0.00 62
20221003032243 73 0.0 0.0 0.00 0.00 0.00 62
20221003031726 73 0.0 0.0 0.00 0.00 0.00 62
20221003031210 73 0.0 0.0 0.00 0.00 0.00 62
20221003030653 73 0.0 0.0 0.00 0.00 0.00 62
20221003030136 73 0.0 0.0 0.00 0.00 0.00 62
20221003025620 73 0.0 0.0 0.00 0.00 0.00 62
20221003025106 73 0.0 0.0 0.00 0.00 0.00 61
20221003024550 73 0.0 0.0 0.00 0.00 0.00 61
20221003024033 74 0.0 0.0 0.00 0.00 0.00 61
20221003023516 74 0.0 0.0 0.00 0.00 0.00 61
20221003022959 74 0.0 0.0 0.00 0.00 0.00 61
20221003022443 74 0.0 0.0 0.00 0.00 0.00 61
20221003021929 74 0.0 0.0 0.00 0.00 0.00 61
20221003021412 74 0.0 0.0 0.00 0.00 0.00 61
20221003020856 74 0.0 0.0 0.00 0.00 0.00 61
20221003020339 74 0.0 0.0 0.00 0.00 0.00 61
20221003015823 74 0.0 0.0 0.00 0.00 0.00 61
20221003015306 74 0.0 0.0 0.00 0.00 0.00 61
20221003014752 74 0.0 0.0 0.00 0.00 0.00 61
20221003014235 74 0.0 0.0 0.00 0.00 0.00 61
20221003013719 74 0.0 0.0 0.00 0.00 0.00 60
20221003013202 74 0.0 0.0 0.00 0.00 0.00 60
20221003012645 74 0.0 0.0 0.00 0.00 0.00 60
20221003012129 74 0.0 0.0 0.00 0.00 0.00 60
20221003011615 74 0.0 0.0 0.00 0.00 0.00 60
20221003011102 74 0.0 0.0 0.00 0.00 0.00 60
20221003010534 74 0.0 0.0 0.00 0.00 0.00 60
20221003010017 74 0.0 0.0 0.00 0.00 0.00 60
20221003005501 74 0.0 0.0 0.00 0.00 0.00 60
20221003004944 74 0.0 0.0 0.00 0.00 0.00 60
20221003004430 74 0.0 0.0 0.00 0.00 0.00 60
20221003003914 74 0.0 0.0 0.00 0.00 0.00 60
20221003003357 74 0.0 0.0 0.00 0.00 0.00 60
20221003002840 74 0.0 0.0 0.00 0.00 0.00 59
20221003002324 74 0.0 0.0 0.00 0.00 0.00 60
20221003001807 74 0.0 0.0 0.00 0.00 0.00 59
20221003001253 74 0.0 0.0 0.00 0.00 0.00 60
20221003000737 74 0.0 0.0 0.00 0.00 0.00 60
20221003000221 74 0.0 0.0 0.00 0.00 0.00 60
20221002235704 74 0.0 0.0 0.00 0.00 0.00 60
20221002235147 74 0.0 0.0 0.00 0.00 0.00 60
20221002234630 75 0.0 0.0 0.00 0.00 0.00 60
20221002234116 75 0.0 0.0 0.00 0.00 0.00 60
20221002233600 75 0.0 0.0 0.00 0.00 0.00 60
20221002233043 75 0.0 0.0 0.00 0.00 0.00 60
20221002232526 75 0.0 0.0 0.00 0.00 0.00 60
20221002232009 75 0.0 0.0 0.00 0.00 0.00 60
20221002231453 75 0.0 0.0 0.00 0.00 0.00 60
20221002230939 75 0.0 0.0 0.00 0.00 0.00 60
20221002230423 75 0.0 0.0 0.00 0.00 0.00 60
20221002225906 75 0.0 0.0 0.00 0.00 0.00 60
20221002225349 75 0.0 0.0 0.00 0.00 0.00 60
20221002224833 75 0.0 0.0 0.00 0.00 0.00 60
20221002224316 75 0.0 0.0 0.00 0.00 0.00 61
20221002223802 75 0.0 0.0 0.00 0.00 0.00 61
20221002223249 75 0.0 0.0 0.00 0.00 0.00 61
20221002222721 75 0.0 0.0 0.00 0.00 0.00 61
20221002222204 75 0.0 0.0 0.00 0.00 0.00 62
20221002221648 75 0.0 0.0 0.00 0.00 0.00 62
20221002221131 75 0.0 0.0 0.00 0.00 0.00 63
20221002220617 75 0.0 0.0 0.00 0.00 0.00 62
20221002220101 75 0.0 0.0 0.00 0.00 0.00 62
20221002215544 75 0.0 0.0 0.00 0.00 0.00 63
20221002215027 75 0.0 0.0 0.00 0.00 0.00 63
20221002214510 75 0.0 0.0 0.00 0.00 0.00 63
20221002213954 75 0.0 0.0 0.00 0.00 0.00 63
20221002213440 75 0.0 0.0 0.00 0.00 0.00 63
20221002212923 76 0.0 0.0 0.00 0.00 0.00 63
20221002212407 76 0.0 0.0 0.00 0.00 0.00 63
20221002211850 76 0.0 0.0 0.00 0.00 0.00 63
20221002211333 76 0.0 0.0 0.00 0.00 0.00 63
20221002210816 76 0.0 0.0 0.00 0.00 0.00 64
20221002210303 76 0.0 0.0 0.00 0.00 0.00 63
20221002205746 76 0.0 0.0 0.00 0.00 0.00 63
20221002205229 76 0.0 0.0 0.00 0.00 0.00 63
20221002204712 76 0.0 0.0 0.00 0.00 0.00 63
20221002204155 76 0.0 0.0 0.00 0.00 0.00 64
20221002203639 76 0.0 0.0 0.00 0.00 0.00 64
20221002203125 76 0.0 0.0 0.00 0.00 0.00 64
20221002202608 76 0.0 0.0 0.00 0.00 0.00 64
20221002202052 76 0.0 0.0 0.00 0.00 0.00 64
20221002201535 76 0.0 0.0 0.00 0.00 0.00 64
20221002201018 76 0.0 0.0 0.00 0.00 0.00 64
20221002200501 76 0.0 0.0 0.00 0.00 0.00 64
20221002195948 76 0.0 0.0 0.00 0.00 0.00 64
20221002195434 21 0.0 0.0 0.00 0.00 0.00 100
20221002194906 76 0.0 0.0 0.00 0.00 0.00 64
20221002194350 76 0.0 0.0 0.00 0.00 0.00 65
20221002193833 76 0.0 0.0 0.00 0.00 0.00 64
20221002193316 77 0.0 0.0 0.00 0.00 0.00 65
20221002192803 77 0.0 0.0 0.00 0.00 0.00 65
20221002192246 77 0.0 0.0 0.00 0.00 0.00 65
20221002191729 77 0.0 0.0 0.00 0.00 0.00 65
20221002191213 77 0.0 0.0 0.00 0.00 0.00 65
20221002190656 77 0.0 0.0 0.00 0.00 0.00 65
20221002190139 77 0.0 0.0 0.00 0.00 0.00 65
20221002185626 77 0.0 0.0 0.00 0.00 0.00 65
20221002185109 77 0.0 0.0 0.00 0.00 0.00 65
20221002184552 77 0.0 0.0 0.00 0.00 0.00 65
20221002184035 77 0.0 0.0 0.00 0.00 0.00 65
20221002183519 77 0.0 0.0 0.00 0.00 0.00 66
20221002183002 77 0.0 0.0 0.00 0.00 0.00 66
20221002182448 77 0.0 0.0 0.00 0.00 0.00 66
20221002181932 77 0.0 0.0 0.00 0.00 0.00 66
20221002181415 77 0.0 0.0 0.00 0.00 0.00 66
20221002180858 77 0.0 0.0 0.00 0.00 0.00 66
20221002180341 77 0.0 0.0 0.00 0.00 0.00 66
20221002175825 77 0.0 0.0 0.00 0.00 0.00 66
20221002175311 77 0.0 0.0 0.00 0.00 0.00 66
20221002174754 77 0.0 0.0 0.00 0.00 0.00 66
20221002174237 77 0.0 0.0 0.00 0.00 0.00 67
20221002173720 77 0.0 0.0 0.00 0.00 0.00 68
20221002173204 77 0.0 0.0 0.00 0.00 0.00 65
20221002172646 77 0.0 0.0 0.00 0.00 0.00 65
20221002172132 77 0.0 0.0 0.00 0.00 0.00 65
20221002171619 21 0.0 0.0 0.00 0.00 0.00 100
20221002171051 77 0.0 0.0 0.00 0.00 0.00 64
20221002170535 77 0.0 0.0 0.00 0.00 0.00 63
20221002170018 77 0.0 0.0 0.00 0.00 0.00 64
20221002165502 77 0.0 0.0 0.00 0.00 0.00 64
20221002164948 77 0.0 0.0 0.00 0.00 0.00 63
20221002164431 77 0.0 0.0 0.00 0.00 0.00 63
20221002163914 76 0.0 0.0 0.00 0.00 0.00 62
20221002163358 76 0.0 0.0 0.00 0.00 0.00 62
20221002162841 76 0.0 0.0 0.00 0.00 0.00 63
20221002162324 76 0.0 0.0 0.00 0.00 0.00 62
20221002161811 76 0.0 0.0 0.00 0.00 0.00 62
20221002161254 76 0.0 0.0 0.00 0.00 0.00 63
20221002160737 76 0.0 0.0 0.00 0.00 0.00 63
20221002160221 76 0.0 0.0 0.00 0.00 0.00 63
20221002155704 76 0.0 0.0 0.00 0.00 0.00 63
20221002155147 76 0.0 0.0 0.00 0.00 0.00 62
20221002154634 76 0.0 0.0 0.00 0.00 0.00 63
20221002154117 76 0.0 0.0 0.00 0.00 0.00 63
20221002153600 76 0.0 0.0 0.00 0.00 0.00 63
20221002153044 76 0.0 0.0 0.00 0.00 0.00 63
20221002152527 76 0.0 0.0 0.00 0.00 0.00 64
20221002152010 76 0.0 0.0 0.00 0.00 0.00 63
20221002151457 76 0.0 0.0 0.00 0.00 0.00 64
20221002150940 75 0.0 0.0 0.00 0.00 0.00 63
20221002150423 75 0.0 0.0 0.00 0.00 0.00 65
20221002145907 75 0.0 0.0 0.00 0.00 0.00 64
20221002145350 75 0.0 0.0 0.00 0.00 0.00 64